Time;durP1;ratioP1;P1;durP2;ratioP2;P2;SDS_P1;SDS_P2;PMS_P1;PMS_P2;Temp;Humidity;BMP_temperature;BMP_pressure;BME280_temperature;BME280_humidity;BME280_pressure;Samples;Min_cycle;Max_cycle;Signal;HPM_P1;HPM_P2
2021/08/03 00:00:25;;;;;;;3.08;2.60;;;12.80;99.90;;;;;;5033583;28;20482;-70
2021/08/03 00:02:56;;;;;;;4.05;2.35;;;12.80;99.90;;;;;;5033513;28;20482;-70
2021/08/03 00:05:26;;;;;;;4.35;2.35;;;12.80;99.90;;;;;;5032678;28;20469;-70
2021/08/03 00:08:00;;;;;;;4.03;2.55;;;12.80;99.90;;;;;;5033808;28;20049;-70
2021/08/03 00:10:27;;;;;;;4.32;2.95;;;12.80;99.90;;;;;;5032960;28;20076;-70
2021/08/03 00:12:55;;;;;;;2.97;2.67;;;12.70;99.90;;;;;;5033453;28;20042;-69
2021/08/03 00:15:22;;;;;;;2.30;2.10;;;12.70;99.90;;;;;;5033963;28;20049;-69
2021/08/03 00:17:53;;;;;;;4.45;2.45;;;12.60;99.90;;;;;;5033500;28;20118;-69
2021/08/03 00:20:21;;;;;;;6.45;2.70;;;12.50;99.90;;;;;;5032996;28;20049;-70
2021/08/03 00:22:48;;;;;;;3.40;2.42;;;12.60;99.90;;;;;;5032803;28;20045;-69
2021/08/03 00:25:15;;;;;;;3.97;2.45;;;12.50;99.90;;;;;;5032691;28;20468;-69
2021/08/03 00:27:42;;;;;;;4.63;2.50;;;12.40;99.90;;;;;;5033520;28;20402;-69
2021/08/03 00:30:10;;;;;;;2.47;2.20;;;12.30;99.90;;;;;;5032858;28;20405;-69
2021/08/03 00:32:37;;;;;;;2.97;2.78;;;12.00;99.90;;;;;;5033457;28;20391;-70
2021/08/03 00:35:05;;;;;;;4.65;2.58;;;11.90;99.90;;;;;;5033172;28;20129;-70
2021/08/03 00:37:32;;;;;;;3.35;2.58;;;11.80;99.90;;;;;;5032649;28;20494;-70
2021/08/03 00:39:58;;;;;;;5.20;2.53;;;11.80;99.90;;;;;;5033066;28;20045;-77
2021/08/03 00:42:25;;;;;;;3.17;2.65;;;11.90;99.90;;;;;;5033139;28;20057;-70
2021/08/03 00:44:52;;;;;;;5.85;3.00;;;12.00;99.90;;;;;;5033028;28;20045;-70
2021/08/03 00:47:20;;;;;;;5.07;2.33;;;12.00;99.90;;;;;;5032734;28;20053;-70
2021/08/03 00:49:47;;;;;;;3.88;2.30;;;12.00;99.90;;;;;;5032292;28;20045;-70
2021/08/03 00:52:17;;;;;;;2.25;1.98;;;12.00;99.90;;;;;;5032607;28;20051;-69
2021/08/03 00:54:45;;;;;;;8.68;2.55;;;12.00;99.90;;;;;;5033055;28;20049;-69
2021/08/03 00:57:13;;;;;;;3.88;2.17;;;12.00;99.90;;;;;;5033043;28;20042;-69
2021/08/03 00:59:39;;;;;;;2.42;1.80;;;12.00;99.90;;;;;;5033329;28;20073;-69
2021/08/03 01:02:08;;;;;;;3.72;2.17;;;12.10;99.90;;;;;;5033586;28;20041;-69
2021/08/03 01:04:35;;;;;;;3.80;2.85;;;12.00;99.90;;;;;;5033187;28;20049;-69
2021/08/03 01:07:09;;;;;;;4.45;2.45;;;12.00;99.90;;;;;;5033187;28;20053;-69
2021/08/03 01:09:48;;;;;;;3.72;2.30;;;12.00;99.90;;;;;;5031843;28;20041;-68
2021/08/03 01:12:31;;;;;;;2.60;2.28;;;12.00;99.90;;;;;;5013423;28;20461;-69
2021/08/03 01:15:06;;;;;;;3.00;2.00;;;12.00;99.90;;;;;;5012683;28;20384;-69
2021/08/03 01:17:39;;;;;;;3.20;2.30;;;12.00;99.90;;;;;;5012713;28;20491;-69
2021/08/03 01:20:12;;;;;;;3.47;2.50;;;11.90;99.90;;;;;;5015605;28;20053;-69
2021/08/03 01:23:00;;;;;;;5.35;2.63;;;11.90;99.90;;;;;;5032514;28;20046;-70
2021/08/03 01:25:40;;;;;;;3.60;2.80;;;11.90;99.90;;;;;;5032729;28;20049;-69
2021/08/03 01:28:14;;;;;;;2.72;2.15;;;11.90;99.90;;;;;;5032494;28;20045;-69
2021/08/03 01:30:44;;;;;;;3.22;2.22;;;11.90;99.90;;;;;;5031981;28;20080;-69
2021/08/03 01:33:13;;;;;;;5.97;2.25;;;11.90;99.90;;;;;;5031743;28;20049;-69
2021/08/03 01:35:41;;;;;;;5.13;2.20;;;11.90;99.90;;;;;;5032293;28;20111;-69
2021/08/03 01:38:08;;;;;;;2.95;2.25;;;11.80;99.90;;;;;;5032955;28;20053;-69
2021/08/03 01:40:37;;;;;;;3.45;3.15;;;11.70;99.90;;;;;;5032085;28;20041;-70
2021/08/03 01:43:05;;;;;;;2.72;2.20;;;11.70;99.90;;;;;;5031864;28;20041;-69
2021/08/03 01:45:35;;;;;;;2.63;2.05;;;11.70;99.90;;;;;;5032472;28;20050;-69
2021/08/03 01:48:06;;;;;;;3.33;2.38;;;11.80;99.90;;;;;;5031618;28;20399;-70
2021/08/03 01:50:34;;;;;;;2.28;2.10;;;11.80;99.90;;;;;;5030814;28;20045;-69
2021/08/03 01:53:02;;;;;;;3.17;2.08;;;11.70;99.90;;;;;;5032580;28;20122;-70
2021/08/03 01:55:30;;;;;;;4.03;2.22;;;11.70;99.90;;;;;;5032540;28;20409;-70
2021/08/03 01:57:57;;;;;;;3.60;2.15;;;11.70;99.90;;;;;;5031701;28;20100;-70
2021/08/03 02:00:23;;;;;;;5.50;2.95;;;11.70;99.90;;;;;;5031238;28;20050;-70
2021/08/03 02:02:53;;;;;;;3.95;2.42;;;11.70;99.90;;;;;;5031643;28;20095;-70
2021/08/03 02:05:20;;;;;;;2.55;2.35;;;11.70;99.90;;;;;;5032100;28;20517;-70
2021/08/03 02:07:47;;;;;;;2.20;1.88;;;11.70;99.90;;;;;;5032073;28;20046;-69
2021/08/03 02:10:14;;;;;;;2.60;2.40;;;11.60;99.90;;;;;;5031390;28;20045;-70
2021/08/03 02:12:41;;;;;;;5.40;3.22;;;11.50;99.90;;;;;;5031567;28;20049;-70
2021/08/03 02:15:09;;;;;;;4.03;3.47;;;11.30;99.90;;;;;;5031347;28;20056;-70
2021/08/03 02:17:38;;;;;;;3.95;3.58;;;11.30;99.90;;;;;;5031391;28;20115;-70
2021/08/03 02:20:08;;;;;;;5.40;3.88;;;11.30;99.90;;;;;;5030687;28;20042;-70
2021/08/03 02:22:34;;;;;;;5.40;4.13;;;11.30;99.90;;;;;;5032123;28;20072;-69
2021/08/03 02:25:01;;;;;;;3.25;2.92;;;11.30;99.90;;;;;;5032171;28;20049;-69
2021/08/03 02:27:28;;;;;;;5.82;3.88;;;11.30;99.90;;;;;;5031152;28;20402;-70
2021/08/03 02:29:56;;;;;;;4.35;3.08;;;11.40;99.90;;;;;;5031214;28;20108;-69
2021/08/03 02:32:28;;;;;;;2.80;2.50;;;11.40;99.90;;;;;;5031498;28;20050;-69
2021/08/03 02:34:58;;;;;;;5.40;3.10;;;11.40;99.90;;;;;;5031580;28;20046;-69
2021/08/03 02:37:31;;;;;;;4.70;3.40;;;11.30;99.90;;;;;;5032883;28;20049;-69
2021/08/03 02:40:00;;;;;;;3.45;3.13;;;11.10;99.90;;;;;;5032502;28;20552;-69
2021/08/03 02:42:27;;;;;;;5.30;3.03;;;11.20;99.90;;;;;;5032543;28;20050;-69
2021/08/03 02:45:00;;;;;;;5.00;3.10;;;11.30;99.90;;;;;;5033564;28;20383;-69
2021/08/03 02:47:30;;;;;;;4.72;3.17;;;11.30;99.90;;;;;;5036626;28;20057;-69
2021/08/03 02:50:06;;;;;;;3.53;2.72;;;11.20;99.90;;;;;;5036071;28;20103;-69
2021/08/03 02:52:37;;;;;;;2.60;2.33;;;11.20;99.90;;;;;;5036831;28;20096;-69
2021/08/03 02:55:07;;;;;;;4.53;2.90;;;11.20;99.90;;;;;;5036243;28;20075;-69
2021/08/03 02:57:36;;;;;;;2.50;2.30;;;11.20;99.90;;;;;;5035726;28;20045;-69
2021/08/03 03:00:05;;;;;;;2.90;2.60;;;11.10;99.90;;;;;;5034460;28;20552;-68
2021/08/03 03:02:35;;;;;;;5.70;3.20;;;11.10;99.90;;;;;;5036143;28;20421;-68
2021/08/03 03:05:07;;;;;;;3.35;2.50;;;11.00;99.90;;;;;;5035543;28;20486;-69
2021/08/03 03:07:39;;;;;;;3.88;2.50;;;11.10;99.90;;;;;;5035447;28;20041;-68
2021/08/03 03:10:13;;;;;;;5.15;3.78;;;10.80;99.90;;;;;;5034766;28;20496;-69
2021/08/03 03:12:42;;;;;;;4.38;2.30;;;10.80;99.90;;;;;;5035575;28;20048;-68
2021/08/03 03:15:10;;;;;;;5.70;3.05;;;10.80;99.90;;;;;;5035505;28;20406;-69
2021/08/03 03:17:37;;;;;;;4.47;3.03;;;10.80;99.90;;;;;;5035448;28;20103;-70
2021/08/03 03:20:05;;;;;;;5.63;2.80;;;10.80;99.90;;;;;;5034517;28;20072;-69
2021/08/03 03:22:38;;;;;;;3.67;2.67;;;10.90;99.90;;;;;;5035350;28;20045;-69
2021/08/03 03:25:06;;;;;;;3.10;2.40;;;11.00;99.90;;;;;;5034985;28;20046;-70
2021/08/03 03:27:33;;;;;;;4.00;2.50;;;11.10;99.90;;;;;;5034875;28;20045;-72
2021/08/03 03:30:01;;;;;;;3.03;2.50;;;11.10;99.90;;;;;;5033624;28;20046;-74
2021/08/03 03:32:31;;;;;;;4.13;2.60;;;11.20;99.90;;;;;;5032723;28;20041;-73
2021/08/03 03:35:00;;;;;;;4.90;2.22;;;11.20;99.90;;;;;;5034185;28;20484;-74
2021/08/03 03:37:30;;;;;;;2.35;2.08;;;11.30;99.90;;;;;;5033904;28;20073;-69
2021/08/03 03:39:58;;;;;;;3.15;2.75;;;11.30;99.90;;;;;;5033757;28;20049;-70
2021/08/03 03:42:31;;;;;;;3.30;2.60;;;11.20;99.90;;;;;;5034577;28;20490;-69
2021/08/03 03:44:58;;;;;;;5.50;3.63;;;11.20;99.90;;;;;;5035742;28;20398;-69
2021/08/03 03:47:29;;;;;;;4.05;2.63;;;11.20;99.90;;;;;;5035610;28;20042;-70
2021/08/03 03:50:01;;;;;;;6.28;3.00;;;11.30;99.90;;;;;;5035092;28;20053;-70
2021/08/03 03:52:33;;;;;;;3.00;2.72;;;11.40;99.90;;;;;;5035025;28;20054;-71
2021/08/03 03:55:05;;;;;;;2.75;2.42;;;11.50;99.90;;;;;;5034294;28;20049;-69
2021/08/03 03:57:34;;;;;;;3.83;2.40;;;11.60;99.90;;;;;;5033302;28;20048;-71
2021/08/03 04:00:02;;;;;;;3.05;2.47;;;11.80;99.90;;;;;;5034343;28;20120;-73
2021/08/03 04:02:33;;;;;;;2.95;2.65;;;11.90;99.90;;;;;;5034538;28;20099;-72
2021/08/03 04:05:02;;;;;;;3.80;2.47;;;11.80;99.90;;;;;;5035180;28;20052;-69
2021/08/03 04:07:31;;;;;;;3.75;2.38;;;11.70;99.90;;;;;;5036125;28;20049;-70
2021/08/03 04:10:08;;;;;;;3.30;3.00;;;11.80;99.90;;;;;;5034535;28;20061;-75
2021/08/03 04:15:17;;;;;;;7.60;2.90;;;11.70;99.90;;;;;;5014837;28;20052;-72
2021/08/03 04:17:43;;;;;;;3.00;2.58;;;11.90;99.90;;;;;;5014034;28;20046;-72
2021/08/03 04:20:11;;;;;;;4.15;2.55;;;12.00;99.90;;;;;;5013210;28;20046;-72
2021/08/03 04:22:38;;;;;;;3.28;2.40;;;12.00;99.90;;;;;;5013415;28;20049;-72
2021/08/03 04:25:11;;;;;;;3.13;2.85;;;12.00;99.90;;;;;;5013882;28;20050;-75
2021/08/03 04:27:38;;;;;;;3.50;3.20;;;12.10;99.90;;;;;;5014707;28;20060;-74
2021/08/03 04:30:07;;;;;;;3.20;2.38;;;12.30;99.90;;;;;;5012409;28;20610;-76
2021/08/03 04:32:35;;;;;;;2.83;2.35;;;12.40;99.90;;;;;;5012017;28;20046;-75
2021/08/03 04:35:06;;;;;;;3.70;3.40;;;12.40;99.90;;;;;;4995854;28;20050;-75
2021/08/03 04:37:40;;;;;;;6.15;2.50;;;12.50;99.90;;;;;;5014201;28;20058;-75
2021/08/03 04:40:11;;;;;;;2.70;2.10;;;12.50;99.90;;;;;;5011112;28;20478;-76
2021/08/03 04:42:43;;;;;;;2.22;1.90;;;12.60;99.90;;;;;;5011791;28;20057;-77
2021/08/03 04:45:11;;;;;;;4.38;2.78;;;12.70;99.90;;;;;;5001853;28;20258;-77
2021/08/03 04:47:42;;;;;;;3.08;2.30;;;12.80;99.90;;;;;;5034783;28;20134;-71
2021/08/03 04:50:13;;;;;;;3.97;3.00;;;12.80;99.90;;;;;;5032984;28;20049;-76
2021/08/03 04:52:39;;;;;;;2.60;2.40;;;12.80;99.90;;;;;;5033882;28;20063;-74
2021/08/03 04:55:09;;;;;;;2.80;2.30;;;12.90;99.90;;;;;;5032786;28;20050;-73
2021/08/03 04:57:36;;;;;;;3.58;2.50;;;13.00;99.90;;;;;;5032635;28;20457;-75
2021/08/03 05:00:04;;;;;;;2.80;2.42;;;13.10;99.90;;;;;;5031553;28;20466;-75
2021/08/03 05:02:31;;;;;;;4.80;2.63;;;13.20;99.90;;;;;;5032264;28;20095;-76
2021/08/03 05:04:58;;;;;;;3.30;2.10;;;13.20;99.90;;;;;;5032311;28;20049;-74
2021/08/03 05:07:25;;;;;;;2.65;1.70;;;13.20;99.90;;;;;;5032097;28;20041;-78
2021/08/03 05:09:51;;;;;;;2.85;2.05;;;13.30;99.90;;;;;;5031077;28;20057;-74
2021/08/03 05:12:19;;;;;;;2.90;2.45;;;13.30;99.90;;;;;;5032009;28;20049;-73
2021/08/03 05:14:46;;;;;;;2.20;1.67;;;13.40;99.90;;;;;;5032211;28;20049;-75
2021/08/03 05:17:13;;;;;;;2.92;1.92;;;13.40;99.90;;;;;;5033784;28;20559;-70
2021/08/03 05:19:39;;;;;;;3.55;2.88;;;13.40;99.90;;;;;;5031061;28;20050;-69
2021/08/03 05:22:07;;;;;;;2.58;2.20;;;13.60;99.90;;;;;;5032353;28;20045;-72
2021/08/03 05:24:34;;;;;;;2.97;2.08;;;13.60;99.90;;;;;;5032016;28;20050;-70
2021/08/03 05:27:01;;;;;;;3.85;2.03;;;13.70;99.90;;;;;;5031949;28;20045;-71
2021/08/03 05:29:30;;;;;;;3.00;2.45;;;13.80;99.90;;;;;;5032182;28;20467;-67
2021/08/03 05:31:58;;;;;;;6.95;3.15;;;13.90;99.90;;;;;;5031032;28;20045;-70
2021/08/03 05:34:24;;;;;;;5.43;2.53;;;14.00;99.90;;;;;;5031470;28;20045;-67
2021/08/03 05:36:51;;;;;;;4.15;2.45;;;14.00;99.90;;;;;;5031157;28;20049;-66
2021/08/03 05:39:18;;;;;;;4.20;2.42;;;14.00;99.90;;;;;;5030994;28;20108;-73
2021/08/03 05:41:44;;;;;;;9.98;4.13;;;14.00;99.90;;;;;;5030633;28;20061;-72
2021/08/03 05:44:11;;;;;;;5.47;2.45;;;14.10;99.90;;;;;;5031675;28;20136;-73
2021/08/03 05:46:40;;;;;;;5.55;2.30;;;14.10;99.90;;;;;;5031683;28;20049;-75
2021/08/03 05:49:07;;;;;;;4.18;2.60;;;14.30;99.90;;;;;;5031183;28;20052;-76
2021/08/03 05:51:34;;;;;;;2.60;2.13;;;14.40;99.90;;;;;;5031766;28;20045;-74
2021/08/03 05:54:01;;;;;;;2.63;2.42;;;14.50;99.90;;;;;;5031285;28;20152;-70
2021/08/03 05:56:27;;;;;;;2.88;2.60;;;14.50;99.90;;;;;;5032069;28;20042;-69
2021/08/03 05:58:54;;;;;;;3.83;2.72;;;14.60;99.90;;;;;;5031423;28;20104;-72
2021/08/03 06:01:20;;;;;;;4.10;2.25;;;14.60;99.90;;;;;;5031797;28;20045;-71
2021/08/03 06:03:48;;;;;;;2.72;1.92;;;14.70;99.90;;;;;;5031842;28;20093;-70
2021/08/03 06:06:16;;;;;;;5.43;2.25;;;14.90;99.90;;;;;;5031371;28;20041;-71
2021/08/03 06:08:43;;;;;;;4.80;2.30;;;15.00;99.90;;;;;;5030345;28;20045;-69
2021/08/03 06:11:16;;;;;;;2.35;1.98;;;15.10;99.90;;;;;;5031666;28;20091;-71
2021/08/03 06:13:47;;;;;;;2.72;1.98;;;15.20;99.90;;;;;;5031485;28;20045;-71
2021/08/03 06:16:16;;;;;;;2.33;1.98;;;15.30;99.90;;;;;;5032483;28;20513;-72
2021/08/03 06:18:45;;;;;;;2.88;2.05;;;15.50;99.90;;;;;;5031612;28;20145;-69
2021/08/03 06:21:13;;;;;;;7.72;3.83;;;15.60;99.90;;;;;;5034746;28;20041;-71
2021/08/03 06:23:40;;;;;;;11.13;5.65;;;15.60;99.90;;;;;;5035528;28;20045;-69
2021/08/03 06:26:07;;;;;;;3.70;2.17;;;15.60;99.90;;;;;;5035193;28;20064;-69
2021/08/03 06:28:36;;;;;;;4.43;1.77;;;15.60;99.90;;;;;;5034594;28;20081;-70
2021/08/03 06:31:03;;;;;;;2.13;1.65;;;15.70;99.90;;;;;;5034850;28;20077;-70
2021/08/03 06:33:30;;;;;;;2.55;2.03;;;15.70;99.90;;;;;;5035178;28;20051;-71
2021/08/03 06:35:57;;;;;;;3.83;2.33;;;15.80;99.90;;;;;;5035411;28;20103;-72
2021/08/03 06:38:26;;;;;;;5.03;1.90;;;15.90;99.90;;;;;;5035671;28;20045;-71
2021/08/03 06:41:02;;;;;;;1.65;1.55;;;15.80;99.90;;;;;;5035312;28;20132;-71
2021/08/03 06:43:30;;;;;;;2.47;2.28;;;15.80;99.90;;;;;;5015664;28;20049;-70
2021/08/03 06:46:02;;;;;;;2.33;2.13;;;15.90;99.90;;;;;;5028363;28;20083;-71
2021/08/03 06:48:32;;;;;;;;;;;15.90;99.90;;;;;;5034864;28;20128;-74
2021/08/03 06:51:07;;;;;;;2.22;1.83;;;15.90;99.90;;;;;;5035051;28;19932;-76
2021/08/03 06:53:37;;;;;;;5.20;1.90;;;15.90;99.90;;;;;;5035939;28;20134;-75
2021/08/03 06:56:06;;;;;;;5.30;2.42;;;15.90;99.90;;;;;;5035908;28;20403;-74
2021/08/03 06:58:39;;;;;;;3.03;2.10;;;15.90;99.90;;;;;;5034954;28;20051;-74
2021/08/03 07:01:09;;;;;;;2.78;1.40;;;16.00;99.90;;;;;;5035402;28;20052;-74
2021/08/03 07:03:39;;;;;;;4.63;3.17;;;16.00;99.90;;;;;;5035799;28;20049;-73
2021/08/03 07:06:08;;;;;;;3.72;1.88;;;16.00;99.90;;;;;;5035581;28;20140;-74
2021/08/03 07:08:38;;;;;;;2.28;1.90;;;16.00;99.90;;;;;;5035021;28;20049;-72
2021/08/03 07:11:07;;;;;;;8.32;5.20;;;16.00;99.90;;;;;;5037562;28;20088;-73
2021/08/03 07:13:34;;;;;;;3.97;2.90;;;16.20;99.90;;;;;;5037357;28;20108;-72
2021/08/03 07:16:03;;;;;;;2.83;2.33;;;16.50;99.90;;;;;;5035997;28;20050;-72
2021/08/03 07:18:37;;;;;;;2.08;1.88;;;16.50;99.90;;;;;;5036440;28;20067;-78
2021/08/03 07:21:05;;;;;;;3.22;1.83;;;16.60;99.90;;;;;;5032055;28;20468;-73
2021/08/03 07:23:36;;;;;;;41.53;24.55;;;16.60;99.90;;;;;;5034689;28;20072;-73
2021/08/03 07:29:19;;;;;;;3.78;2.92;;;16.50;99.90;;;;;;5091791;27;1878176;-74
2021/08/03 07:31:48;;;;;;;20.98;10.32;;;16.60;99.90;;;;;;5131851;28;20048;-72
2021/08/03 07:34:17;;;;;;;5.07;2.95;;;16.50;99.90;;;;;;5131009;28;20050;-72
2021/08/03 07:36:45;;;;;;;3.42;2.10;;;16.60;99.90;;;;;;5125693;28;20127;-71
2021/08/03 07:39:12;;;;;;;6.45;2.28;;;16.50;99.90;;;;;;5109891;28;20492;-72
2021/08/03 07:41:39;;;;;;;6.80;4.00;;;16.60;99.90;;;;;;5127472;28;20048;-74
2021/08/03 07:44:07;;;;;;;3.03;2.20;;;16.80;99.90;;;;;;5130383;28;20058;-74
2021/08/03 07:46:37;;;;;;;2.55;2.15;;;16.80;99.90;;;;;;5130265;28;20047;-72
2021/08/03 07:49:05;;;;;;;3.83;2.65;;;17.00;99.90;;;;;;5128992;28;20073;-75
2021/08/03 07:51:32;;;;;;;4.80;3.17;;;17.00;99.90;;;;;;5130281;28;20555;-73
2021/08/03 07:53:58;;;;;;;2.90;2.60;;;17.10;99.90;;;;;;5129392;28;20043;-73
2021/08/03 07:56:25;;;;;;;8.23;4.70;;;16.90;99.90;;;;;;5129757;28;20545;-73
2021/08/03 07:58:51;;;;;;;3.25;2.33;;;17.20;99.90;;;;;;5127737;28;20104;-73
2021/08/03 08:01:18;;;;;;;3.40;2.35;;;17.40;99.90;;;;;;5129863;28;20507;-73
2021/08/03 08:03:47;;;;;;;3.15;2.30;;;17.70;99.90;;;;;;5129856;28;20088;-73
2021/08/03 08:06:17;;;;;;;4.05;2.72;;;18.40;99.90;;;;;;5130397;28;20109;-72
2021/08/03 08:08:43;;;;;;;8.82;3.70;;;19.50;99.90;;;;;;5129766;28;20047;-73
2021/08/03 08:11:10;;;;;;;1.98;1.75;;;20.40;99.90;;;;;;5130365;28;20084;-73
2021/08/03 08:13:38;;;;;;;3.13;2.13;;;20.70;99.90;;;;;;5125769;28;20053;-73
2021/08/03 08:16:05;;;;;;;4.40;1.40;;;21.40;99.90;;;;;;5110091;28;20434;-73
2021/08/03 08:18:32;;;;;;;3.55;1.23;;;21.90;99.90;;;;;;5118456;28;20089;-73
2021/08/03 08:21:00;;;;;;;2.55;1.23;;;21.70;99.90;;;;;;5125787;28;20048;-72
2021/08/03 08:23:27;;;;;;;3.28;1.20;;;22.50;99.90;;;;;;5126432;28;20097;-72
2021/08/03 08:25:54;;;;;;;5.65;1.30;;;22.90;99.90;;;;;;5125389;28;20048;-71
2021/08/03 08:28:20;;;;;;;2.70;1.33;;;23.10;99.90;;;;;;5108189;28;20150;-72
2021/08/03 08:30:47;;;;;;;3.08;2.50;;;23.10;99.90;;;;;;5121211;28;20035;-73
2021/08/03 08:33:14;;;;;;;1.92;1.10;;;23.80;99.50;;;;;;5129647;28;20059;-74
2021/08/03 08:35:40;;;;;;;1.25;0.93;;;24.50;96.70;;;;;;5129981;28;20093;-72
2021/08/03 08:38:08;;;;;;;3.83;1.73;;;24.00;95.30;;;;;;5129402;28;20040;-72
2021/08/03 08:40:35;;;;;;;3.20;1.90;;;23.80;96.20;;;;;;5115654;28;20089;-71
2021/08/03 08:43:02;;;;;;;2.67;1.20;;;23.50;95.90;;;;;;5115774;28;20557;-70
2021/08/03 08:45:30;;;;;;;7.90;1.67;;;22.90;97.70;;;;;;5115908;28;20074;-70
2021/08/03 08:47:58;;;;;;;1.75;1.00;;;22.80;98.00;;;;;;5099218;28;20054;-71
2021/08/03 08:50:25;;;;;;;2.38;1.00;;;22.60;98.30;;;;;;5110616;28;20040;-71
2021/08/03 08:52:54;;;;;;;1.42;0.98;;;22.30;99.50;;;;;;5094584;28;20086;-71
2021/08/03 08:55:23;;;;;;;2.40;1.20;;;21.80;99.90;;;;;;5094498;28;20044;-70
2021/08/03 08:57:51;;;;;;;2.42;1.67;;;21.20;99.90;;;;;;5096065;28;20044;-72
2021/08/03 09:00:19;;;;;;;3.90;1.83;;;20.90;99.90;;;;;;5103913;28;20036;-74
2021/08/03 09:02:47;;;;;;;1.63;1.15;;;20.80;99.90;;;;;;5115510;28;20048;-74
2021/08/03 09:05:15;;;;;;;1.35;1.25;;;20.80;99.90;;;;;;5115905;28;20596;-73
2021/08/03 09:07:49;;;;;;;9.45;2.97;;;20.60;99.90;;;;;;5114927;28;20051;-74
2021/08/03 09:10:36;;;;;;;3.70;2.13;;;20.60;99.90;;;;;;5112851;28;20096;-75
2021/08/03 09:13:05;;;;;;;2.50;1.30;;;20.60;99.90;;;;;;5114547;28;20504;-73
2021/08/03 09:15:32;;;;;;;1.63;1.15;;;20.50;99.90;;;;;;5115061;28;20036;-72
2021/08/03 09:18:14;;;;;;;2.72;1.20;;;20.50;99.90;;;;;;5100625;28;20044;-70
2021/08/03 09:20:41;;;;;;;1.77;1.52;;;21.30;99.90;;;;;;5113351;28;20048;-70
2021/08/03 09:23:08;;;;;;;1.85;1.70;;;22.10;99.90;;;;;;5113438;28;20168;-71
2021/08/03 09:25:38;;;;;;;3.90;1.45;;;22.40;99.90;;;;;;5106737;28;20040;-70
2021/08/03 09:28:06;;;;;;;1.83;1.25;;;22.60;99.90;;;;;;5093755;28;20054;-72
2021/08/03 09:30:35;;;;;;;2.53;1.63;;;23.10;99.20;;;;;;5093777;28;20508;-74
2021/08/03 09:33:03;;;;;;;6.75;2.63;;;23.30;98.20;;;;;;5094290;28;20055;-71
2021/08/03 09:35:32;;;;;;;3.47;1.10;;;24.40;95.70;;;;;;5093933;28;20048;-69
2021/08/03 09:37:59;;;;;;;6.10;2.00;;;24.70;92.90;;;;;;5097366;28;20461;-69
2021/08/03 09:40:27;;;;;;;2.80;1.27;;;24.70;91.80;;;;;;5106050;28;20042;-69
2021/08/03 09:43:03;;;;;;;3.80;1.65;;;25.90;91.40;;;;;;5095446;28;20048;-70
2021/08/03 09:45:32;;;;;;;4.03;2.90;;;26.30;81.40;;;;;;5113813;28;20048;-70
2021/08/03 09:48:10;;;;;;;6.65;4.13;;;27.30;79.60;;;;;;5110475;28;20040;-71
2021/08/03 09:51:00;;;;;;;3.83;2.25;;;28.10;78.50;;;;;;5091448;28;20446;-69
2021/08/03 09:53:52;;;;;;;6.17;3.83;;;29.20;73.30;;;;;;5093333;28;20101;-73
2021/08/03 09:56:34;;;;;;;2.15;1.10;;;29.60;69.90;;;;;;5091402;28;20498;-71
2021/08/03 09:59:03;;;;;;;1.25;0.63;;;29.40;65.40;;;;;;5096917;28;20577;-71
2021/08/03 10:01:32;;;;;;;1.15;1.05;;;28.60;65.40;;;;;;5097616;28;20051;-71
2021/08/03 10:04:01;;;;;;;0.90;0.82;;;28.70;65.50;;;;;;5099272;28;20399;-71
2021/08/03 10:06:28;;;;;;;3.58;1.00;;;27.30;66.70;;;;;;5099149;28;20113;-71
2021/08/03 10:08:55;;;;;;;3.05;0.95;;;27.60;68.90;;;;;;5100066;28;20082;-72
2021/08/03 10:11:23;;;;;;;2.15;0.80;;;27.50;69.10;;;;;;5104765;28;20060;-71
2021/08/03 10:13:51;;;;;;;2.47;0.60;;;27.70;66.70;;;;;;5092849;28;20056;-71
2021/08/03 10:16:19;;;;;;;3.67;1.75;;;27.20;65.00;;;;;;5092646;28;20101;-72
2021/08/03 10:18:48;;;;;;;1.27;0.40;;;28.20;66.70;;;;;;5091932;28;20495;-72
2021/08/03 10:21:31;;;;;;;3.80;0.63;;;27.60;58.40;;;;;;5092104;28;20629;-71
2021/08/03 10:24:03;;;;;;;1.63;0.88;;;26.80;61.80;;;;;;5112450;28;20044;-71
2021/08/03 10:26:30;;;;;;;0.88;0.85;;;28.30;60.70;;;;;;5113496;28;20047;-88
2021/08/03 10:29:23;;;;;;;1.60;1.50;;;28.00;59.10;;;;;;5112355;28;20051;-71
2021/08/03 10:31:51;;;;;;;2.38;1.58;;;27.50;61.80;;;;;;5112954;28;20047;-72
2021/08/03 10:34:55;;;;;;;1.20;1.00;;;27.80;60.80;;;;;;5112833;28;20061;-71
2021/08/03 10:37:24;;;;;;;1.88;1.13;;;27.30;61.50;;;;;;5112825;28;20104;-71
2021/08/03 10:39:52;;;;;;;2.55;1.70;;;26.80;64.00;;;;;;5093533;28;20040;-71
2021/08/03 10:42:20;;;;;;;1.70;1.60;;;26.30;66.40;;;;;;5094985;28;20488;-71
2021/08/03 10:44:48;;;;;;;5.53;2.50;;;27.00;63.70;;;;;;5112673;28;20052;-72
2021/08/03 10:47:47;;;;;;;1.48;1.38;;;27.10;63.40;;;;;;5112691;28;20415;-72
2021/08/03 10:50:17;;;;;;;4.82;1.20;;;27.40;64.80;;;;;;5089651;28;20048;-72
2021/08/03 10:52:54;;;;;;;0.50;0.50;;;27.60;62.80;;;;;;5092333;28;20044;-72
2021/08/03 10:55:31;;;;;;;1.02;0.90;;;26.80;62.00;;;;;;5092500;28;20048;-72
2021/08/03 10:58:23;;;;;;;1.63;0.90;;;26.50;65.40;;;;;;5102518;28;20069;-71
2021/08/03 11:00:52;;;;;;;3.97;2.08;;;27.10;62.70;;;;;;5105495;28;20075;-72
2021/08/03 11:03:43;;;;;;;2.10;0.90;;;28.10;61.70;;;;;;5112755;28;20039;-73
2021/08/03 11:06:35;;;;;;;0.60;0.60;;;29.20;59.60;;;;;;5113701;28;20075;-72
2021/08/03 11:09:23;;;;;;;1.15;1.05;;;29.80;57.50;;;;;;5112845;28;20048;-71
2021/08/03 11:11:49;;;;;;;4.68;0.90;;;29.40;57.20;;;;;;5112578;28;20531;-70
2021/08/03 11:14:28;;;;;;;5.13;4.40;;;29.30;57.00;;;;;;5098181;28;20052;-71
2021/08/03 11:16:58;;;;;;;4.05;1.60;;;29.90;59.00;;;;;;5093205;28;20416;-71
2021/08/03 11:19:35;;;;;;;1.05;0.65;;;30.30;55.70;;;;;;5112361;28;20108;-73
2021/08/03 11:22:02;;;;;;;1.88;1.73;;;29.60;56.40;;;;;;5113219;28;20047;-73
2021/08/03 11:24:37;;;;;;;1.08;0.80;;;30.00;56.90;;;;;;5112400;28;20051;-73
2021/08/03 11:27:04;;;;;;;1.25;0.90;;;29.60;55.30;;;;;;5092939;28;20079;-71
2021/08/03 11:29:36;;;;;;;0.80;0.80;;;30.30;54.30;;;;;;5092001;28;20516;-73
2021/08/03 11:32:05;;;;;;;2.58;0.80;;;30.00;54.30;;;;;;5092987;28;20040;-73
2021/08/03 11:34:55;;;;;;;1.27;1.17;;;28.80;55.20;;;;;;5094839;28;20040;-77
2021/08/03 11:37:22;;;;;;;1.73;1.23;;;29.50;55.40;;;;;;5091935;28;20043;-73
2021/08/03 11:39:52;;;;;;;2.30;1.40;;;30.10;54.30;;;;;;5092345;28;20460;-72
2021/08/03 11:42:33;;;;;;;1.30;1.20;;;30.10;56.20;;;;;;5094069;28;20040;-76
2021/08/03 11:45:03;;;;;;;1.48;1.38;;;29.90;55.40;;;;;;5098941;28;20062;-72
2021/08/03 11:47:45;;;;;;;1.17;0.93;;;28.70;55.60;;;;;;5093627;28;20044;-72
2021/08/03 11:50:16;;;;;;;1.80;0.98;;;28.30;57.20;;;;;;5092037;28;20123;-74
2021/08/03 11:53:07;;;;;;;3.30;1.20;;;28.50;58.10;;;;;;5094341;28;20101;-77
2021/08/03 11:55:35;;;;;;;0.80;0.80;;;28.20;57.90;;;;;;5112785;28;20112;-74
2021/08/03 11:58:15;;;;;;;2.97;0.80;;;27.90;57.30;;;;;;5111960;28;20047;-73
2021/08/03 12:00:41;;;;;;;2.40;1.20;;;28.00;58.70;;;;;;5078278;28;20052;-71
2021/08/03 12:03:08;;;;;;;1.92;1.08;;;28.70;55.20;;;;;;5093030;28;20294;-72
2021/08/03 12:05:38;;;;;;;1.02;0.93;;;28.30;54.60;;;;;;5092668;28;20036;-74
2021/08/03 12:08:18;;;;;;;2.30;1.23;;;28.60;53.60;;;;;;5092316;28;20082;-76
2021/08/03 12:13:30;;;;;;;1.77;0.82;;;30.60;53.30;;;;;;5065490;28;20139;-73
2021/08/03 12:15:58;;;;;;;1.45;1.20;;;30.70;52.80;;;;;;5072614;28;20044;-75
2021/08/03 12:18:35;;;;;;;2.05;1.00;;;30.70;51.10;;;;;;5064745;28;20045;-77
2021/08/03 12:21:03;;;;;;;1.20;0.70;;;31.10;51.10;;;;;;5072383;28;20040;-75
2021/08/03 12:23:31;;;;;;;1.05;0.95;;;31.20;52.40;;;;;;5071722;28;20175;-70
2021/08/03 12:26:00;;;;;;;1.02;0.90;;;30.20;51.10;;;;;;5072152;28;20048;-69
2021/08/03 12:28:32;;;;;;;1.85;1.20;;;29.20;52.50;;;;;;5071397;28;20049;-69
2021/08/03 12:31:14;;;;;;;1.63;1.10;;;27.90;54.40;;;;;;5071918;28;20400;-71
2021/08/03 12:33:40;;;;;;;0.90;0.90;;;26.70;56.30;;;;;;5062442;28;20087;-71
2021/08/03 12:36:11;;;;;;;2.30;1.00;;;27.20;57.10;;;;;;5071097;28;20048;-71
2021/08/03 12:38:38;;;;;;;;;;;28.30;54.90;;;;;;5091833;28;20086;-72
2021/08/03 12:41:16;;;;;;;1.23;1.13;;;29.80;53.30;;;;;;5094807;28;19978;-73
2021/08/03 12:43:43;;;;;;;2.25;1.67;;;30.50;52.00;;;;;;5095136;28;20101;-72
2021/08/03 12:46:09;;;;;;;1.40;1.13;;;30.30;50.60;;;;;;5094965;28;20055;-73
2021/08/03 12:48:37;;;;;;;1.00;0.80;;;31.10;51.80;;;;;;5109714;28;20063;-72
2021/08/03 12:51:04;;;;;;;1.58;1.10;;;32.00;51.50;;;;;;5115410;28;20044;-73
2021/08/03 12:53:33;;;;;;;1.13;1.02;;;32.60;48.30;;;;;;5115360;28;20043;-73
2021/08/03 12:56:17;;;;;;;1.20;1.05;;;32.70;48.40;;;;;;5114564;28;20043;-73
2021/08/03 12:58:44;;;;;;;1.52;1.15;;;33.30;48.60;;;;;;5114443;28;20100;-71
2021/08/03 13:01:15;;;;;;;1.92;1.83;;;33.60;47.80;;;;;;5114841;28;20055;-73
2021/08/03 13:03:42;;;;;;;2.65;2.10;;;33.20;47.10;;;;;;5114609;28;20040;-73
2021/08/03 13:06:09;;;;;;;1.80;1.10;;;33.50;47.00;;;;;;5114722;28;20048;-76
2021/08/03 13:08:37;;;;;;;1.90;1.40;;;33.30;46.90;;;;;;5114003;28;20096;-73
2021/08/03 13:11:05;;;;;;;3.92;3.05;;;32.70;46.80;;;;;;5114245;28;20449;-72